sensor_id;sensor_type;location;lat;lon;timestamp;P1;durP1;ratioP1;P2;durP2;ratioP2
9972;SDS011;5027;53.560;10.062;2024-03-02T00:01:06;15.37;;;13.37;;
9972;SDS011;5027;53.560;10.062;2024-03-02T00:03:33;15.77;;;14.07;;
9972;SDS011;5027;53.560;10.062;2024-03-02T00:06:00;16.27;;;13.27;;
9972;SDS011;5027;53.560;10.062;2024-03-02T00:08:27;15.53;;;13.57;;
9972;SDS011;5027;53.560;10.062;2024-03-02T00:10:58;20.43;;;13.77;;
9972;SDS011;5027;53.560;10.062;2024-03-02T00:13:26;16.30;;;13.03;;
9972;SDS011;5027;53.560;10.062;2024-03-02T00:15:54;15.27;;;13.67;;
9972;SDS011;5027;53.560;10.062;2024-03-02T00:18:25;15.57;;;13.73;;
9972;SDS011;5027;53.560;10.062;2024-03-02T00:20:56;15.43;;;13.80;;
9972;SDS011;5027;53.560;10.062;2024-03-02T00:23:24;18.57;;;14.07;;
9972;SDS011;5027;53.560;10.062;2024-03-02T00:25:55;19.33;;;15.73;;
9972;SDS011;5027;53.560;10.062;2024-03-02T00:28:23;18.77;;;15.90;;
9972;SDS011;5027;53.560;10.062;2024-03-02T00:30:56;23.87;;;16.43;;
9972;SDS011;5027;53.560;10.062;2024-03-02T00:33:34;18.80;;;16.73;;
9972;SDS011;5027;53.560;10.062;2024-03-02T00:36:03;22.47;;;18.50;;
9972;SDS011;5027;53.560;10.062;2024-03-02T00:38:31;22.97;;;19.57;;
9972;SDS011;5027;53.560;10.062;2024-03-02T00:40:59;21.67;;;18.40;;
9972;SDS011;5027;53.560;10.062;2024-03-02T00:43:43;23.13;;;19.30;;
9972;SDS011;5027;53.560;10.062;2024-03-02T00:46:22;25.57;;;19.33;;
9972;SDS011;5027;53.560;10.062;2024-03-02T00:48:54;26.07;;;22.73;;
9972;SDS011;5027;53.560;10.062;2024-03-02T00:51:23;33.87;;;25.50;;
9972;SDS011;5027;53.560;10.062;2024-03-02T00:53:52;28.37;;;21.23;;
9972;SDS011;5027;53.560;10.062;2024-03-02T00:56:23;25.93;;;21.70;;
9972;SDS011;5027;53.560;10.062;2024-03-02T00:58:50;24.57;;;19.87;;
9972;SDS011;5027;53.560;10.062;2024-03-02T01:01:18;26.23;;;21.63;;
9972;SDS011;5027;53.560;10.062;2024-03-02T01:03:48;26.20;;;22.13;;
9972;SDS011;5027;53.560;10.062;2024-03-02T01:06:16;26.37;;;21.60;;
9972;SDS011;5027;53.560;10.062;2024-03-02T01:08:43;28.73;;;22.70;;
9972;SDS011;5027;53.560;10.062;2024-03-02T01:11:10;25.73;;;22.27;;
9972;SDS011;5027;53.560;10.062;2024-03-02T01:13:37;28.73;;;23.40;;
9972;SDS011;5027;53.560;10.062;2024-03-02T01:16:04;30.67;;;23.03;;
9972;SDS011;5027;53.560;10.062;2024-03-02T01:18:31;27.27;;;23.13;;
9972;SDS011;5027;53.560;10.062;2024-03-02T01:20:58;29.93;;;24.17;;
9972;SDS011;5027;53.560;10.062;2024-03-02T01:23:24;26.53;;;22.87;;
9972;SDS011;5027;53.560;10.062;2024-03-02T01:25:51;27.97;;;22.10;;
9972;SDS011;5027;53.560;10.062;2024-03-02T01:28:19;28.97;;;23.90;;
9972;SDS011;5027;53.560;10.062;2024-03-02T01:30:47;27.63;;;23.30;;
9972;SDS011;5027;53.560;10.062;2024-03-02T01:33:14;27.77;;;23.53;;
9972;SDS011;5027;53.560;10.062;2024-03-02T01:35:41;28.23;;;23.93;;
9972;SDS011;5027;53.560;10.062;2024-03-02T01:38:08;30.83;;;23.93;;
9972;SDS011;5027;53.560;10.062;2024-03-02T01:40:34;28.43;;;24.50;;
9972;SDS011;5027;53.560;10.062;2024-03-02T01:43:02;28.50;;;24.07;;
9972;SDS011;5027;53.560;10.062;2024-03-02T01:45:30;29.33;;;24.37;;
9972;SDS011;5027;53.560;10.062;2024-03-02T01:47:58;31.47;;;24.20;;
9972;SDS011;5027;53.560;10.062;2024-03-02T01:50:26;28.73;;;24.47;;
9972;SDS011;5027;53.560;10.062;2024-03-02T01:52:55;29.27;;;23.83;;
9972;SDS011;5027;53.560;10.062;2024-03-02T01:55:22;29.03;;;23.90;;
9972;SDS011;5027;53.560;10.062;2024-03-02T01:57:49;29.60;;;24.90;;
9972;SDS011;5027;53.560;10.062;2024-03-02T02:00:17;29.63;;;24.50;;
9972;SDS011;5027;53.560;10.062;2024-03-02T02:02:46;29.10;;;24.17;;
9972;SDS011;5027;53.560;10.062;2024-03-02T02:05:14;31.80;;;25.47;;
9972;SDS011;5027;53.560;10.062;2024-03-02T02:07:41;30.07;;;23.40;;
9972;SDS011;5027;53.560;10.062;2024-03-02T02:10:11;27.47;;;24.40;;
9972;SDS011;5027;53.560;10.062;2024-03-02T02:12:38;29.90;;;25.33;;
9972;SDS011;5027;53.560;10.062;2024-03-02T02:15:21;30.30;;;24.33;;
9972;SDS011;5027;53.560;10.062;2024-03-02T02:17:51;29.00;;;24.23;;
9972;SDS011;5027;53.560;10.062;2024-03-02T02:20:18;30.83;;;25.30;;
9972;SDS011;5027;53.560;10.062;2024-03-02T02:23:04;30.37;;;25.77;;
9972;SDS011;5027;53.560;10.062;2024-03-02T02:25:36;30.47;;;25.60;;
9972;SDS011;5027;53.560;10.062;2024-03-02T02:28:02;29.23;;;25.20;;
9972;SDS011;5027;53.560;10.062;2024-03-02T02:30:30;31.83;;;24.80;;
9972;SDS011;5027;53.560;10.062;2024-03-02T02:32:58;28.93;;;24.47;;
9972;SDS011;5027;53.560;10.062;2024-03-02T02:35:25;31.47;;;24.90;;
9972;SDS011;5027;53.560;10.062;2024-03-02T02:37:52;30.70;;;25.40;;
9972;SDS011;5027;53.560;10.062;2024-03-02T02:40:21;30.13;;;24.93;;
9972;SDS011;5027;53.560;10.062;2024-03-02T02:42:48;29.60;;;24.93;;
9972;SDS011;5027;53.560;10.062;2024-03-02T02:45:16;29.03;;;24.60;;
9972;SDS011;5027;53.560;10.062;2024-03-02T02:47:43;32.27;;;24.93;;
9972;SDS011;5027;53.560;10.062;2024-03-02T02:50:11;27.80;;;23.23;;
9972;SDS011;5027;53.560;10.062;2024-03-02T02:52:39;30.93;;;24.53;;
9972;SDS011;5027;53.560;10.062;2024-03-02T02:55:07;28.10;;;24.13;;
9972;SDS011;5027;53.560;10.062;2024-03-02T02:57:39;28.80;;;23.83;;
9972;SDS011;5027;53.560;10.062;2024-03-02T03:00:12;29.10;;;23.40;;
9972;SDS011;5027;53.560;10.062;2024-03-02T03:02:43;27.57;;;23.30;;
9972;SDS011;5027;53.560;10.062;2024-03-02T03:05:12;29.63;;;23.93;;
9972;SDS011;5027;53.560;10.062;2024-03-02T03:07:40;26.50;;;23.60;;
9972;SDS011;5027;53.560;10.062;2024-03-02T03:10:07;28.80;;;24.27;;
9972;SDS011;5027;53.560;10.062;2024-03-02T03:12:35;28.07;;;23.03;;
9972;SDS011;5027;53.560;10.062;2024-03-02T03:15:02;28.67;;;23.57;;
9972;SDS011;5027;53.560;10.062;2024-03-02T03:17:30;25.73;;;22.93;;
9972;SDS011;5027;53.560;10.062;2024-03-02T03:19:57;29.60;;;24.40;;
9972;SDS011;5027;53.560;10.062;2024-03-02T03:22:24;28.83;;;23.67;;
9972;SDS011;5027;53.560;10.062;2024-03-02T03:24:51;26.80;;;23.53;;
9972;SDS011;5027;53.560;10.062;2024-03-02T03:27:18;26.83;;;22.53;;
9972;SDS011;5027;53.560;10.062;2024-03-02T03:29:46;29.20;;;23.03;;
9972;SDS011;5027;53.560;10.062;2024-03-02T03:32:13;27.53;;;23.87;;
9972;SDS011;5027;53.560;10.062;2024-03-02T03:34:40;28.03;;;23.43;;
9972;SDS011;5027;53.560;10.062;2024-03-02T03:37:07;31.40;;;24.07;;
9972;SDS011;5027;53.560;10.062;2024-03-02T03:39:34;29.27;;;24.00;;
9972;SDS011;5027;53.560;10.062;2024-03-02T03:42:02;29.23;;;22.63;;
9972;SDS011;5027;53.560;10.062;2024-03-02T03:44:29;27.10;;;23.43;;
9972;SDS011;5027;53.560;10.062;2024-03-02T03:46:56;27.27;;;22.90;;
9972;SDS011;5027;53.560;10.062;2024-03-02T03:49:23;27.90;;;24.40;;
9972;SDS011;5027;53.560;10.062;2024-03-02T03:51:49;29.73;;;23.07;;
9972;SDS011;5027;53.560;10.062;2024-03-02T03:54:16;26.57;;;22.10;;
9972;SDS011;5027;53.560;10.062;2024-03-02T03:56:43;27.20;;;22.03;;
9972;SDS011;5027;53.560;10.062;2024-03-02T03:59:10;28.77;;;23.30;;
9972;SDS011;5027;53.560;10.062;2024-03-02T04:01:37;28.57;;;23.10;;
9972;SDS011;5027;53.560;10.062;2024-03-02T04:04:04;25.23;;;21.63;;
9972;SDS011;5027;53.560;10.062;2024-03-02T04:06:30;28.40;;;22.00;;
9972;SDS011;5027;53.560;10.062;2024-03-02T04:08:58;31.47;;;22.73;;
9972;SDS011;5027;53.560;10.062;2024-03-02T04:11:24;24.23;;;21.17;;
9972;SDS011;5027;53.560;10.062;2024-03-02T04:13:51;27.30;;;21.53;;
9972;SDS011;5027;53.560;10.062;2024-03-02T04:16:21;25.80;;;20.70;;
9972;SDS011;5027;53.560;10.062;2024-03-02T04:18:47;24.50;;;21.10;;
9972;SDS011;5027;53.560;10.062;2024-03-02T04:21:14;25.17;;;21.00;;
9972;SDS011;5027;53.560;10.062;2024-03-02T04:23:41;26.03;;;22.73;;
9972;SDS011;5027;53.560;10.062;2024-03-02T04:26:08;26.53;;;21.30;;
9972;SDS011;5027;53.560;10.062;2024-03-02T04:28:35;23.93;;;20.57;;
9972;SDS011;5027;53.560;10.062;2024-03-02T04:31:01;26.40;;;21.93;;
9972;SDS011;5027;53.560;10.062;2024-03-02T04:33:28;25.43;;;20.93;;
9972;SDS011;5027;53.560;10.062;2024-03-02T04:35:55;25.00;;;21.60;;
9972;SDS011;5027;53.560;10.062;2024-03-02T04:38:22;25.17;;;21.47;;
9972;SDS011;5027;53.560;10.062;2024-03-02T04:40:48;24.33;;;20.80;;
9972;SDS011;5027;53.560;10.062;2024-03-02T04:43:15;27.67;;;21.43;;
9972;SDS011;5027;53.560;10.062;2024-03-02T04:45:42;27.23;;;21.73;;
9972;SDS011;5027;53.560;10.062;2024-03-02T04:48:09;23.27;;;20.77;;
9972;SDS011;5027;53.560;10.062;2024-03-02T04:50:36;27.33;;;21.87;;
9972;SDS011;5027;53.560;10.062;2024-03-02T04:53:03;25.03;;;21.27;;
9972;SDS011;5027;53.560;10.062;2024-03-02T04:55:30;28.63;;;22.07;;
9972;SDS011;5027;53.560;10.062;2024-03-02T04:58:06;24.77;;;21.03;;
9972;SDS011;5027;53.560;10.062;2024-03-02T05:00:34;24.67;;;21.27;;
9972;SDS011;5027;53.560;10.062;2024-03-02T05:03:02;27.43;;;21.37;;
9972;SDS011;5027;53.560;10.062;2024-03-02T05:05:29;23.13;;;20.63;;
9972;SDS011;5027;53.560;10.062;2024-03-02T05:07:55;25.97;;;21.70;;
9972;SDS011;5027;53.560;10.062;2024-03-02T05:10:22;25.17;;;20.53;;
9972;SDS011;5027;53.560;10.062;2024-03-02T05:12:49;25.00;;;20.67;;
9972;SDS011;5027;53.560;10.062;2024-03-02T05:15:26;26.87;;;20.87;;
9972;SDS011;5027;53.560;10.062;2024-03-02T05:17:54;25.37;;;21.57;;
9972;SDS011;5027;53.560;10.062;2024-03-02T05:20:20;23.33;;;20.03;;
9972;SDS011;5027;53.560;10.062;2024-03-02T05:22:47;24.90;;;21.53;;
9972;SDS011;5027;53.560;10.062;2024-03-02T05:25:15;25.60;;;20.97;;
9972;SDS011;5027;53.560;10.062;2024-03-02T05:27:42;25.70;;;21.20;;
9972;SDS011;5027;53.560;10.062;2024-03-02T05:30:09;26.03;;;21.43;;
9972;SDS011;5027;53.560;10.062;2024-03-02T05:32:36;24.30;;;21.03;;
9972;SDS011;5027;53.560;10.062;2024-03-02T05:35:03;25.70;;;20.53;;
9972;SDS011;5027;53.560;10.062;2024-03-02T05:37:31;23.47;;;20.30;;
9972;SDS011;5027;53.560;10.062;2024-03-02T05:39:57;24.47;;;21.13;;
9972;SDS011;5027;53.560;10.062;2024-03-02T05:42:25;22.80;;;20.33;;
9972;SDS011;5027;53.560;10.062;2024-03-02T05:44:53;25.30;;;20.73;;
9972;SDS011;5027;53.560;10.062;2024-03-02T05:47:20;23.30;;;20.80;;
9972;SDS011;5027;53.560;10.062;2024-03-02T05:49:47;25.63;;;22.00;;
9972;SDS011;5027;53.560;10.062;2024-03-02T05:52:13;26.43;;;21.03;;
9972;SDS011;5027;53.560;10.062;2024-03-02T05:54:40;25.47;;;21.53;;
9972;SDS011;5027;53.560;10.062;2024-03-02T05:57:07;26.33;;;20.57;;
9972;SDS011;5027;53.560;10.062;2024-03-02T05:59:47;26.73;;;20.73;;
9972;SDS011;5027;53.560;10.062;2024-03-02T06:02:14;22.97;;;20.47;;
9972;SDS011;5027;53.560;10.062;2024-03-02T06:04:40;25.40;;;20.03;;
9972;SDS011;5027;53.560;10.062;2024-03-02T06:07:07;26.43;;;19.77;;
9972;SDS011;5027;53.560;10.062;2024-03-02T06:09:34;25.17;;;20.43;;
9972;SDS011;5027;53.560;10.062;2024-03-02T06:12:00;25.73;;;21.83;;
9972;SDS011;5027;53.560;10.062;2024-03-02T06:14:27;25.07;;;20.27;;
9972;SDS011;5027;53.560;10.062;2024-03-02T06:16:54;22.93;;;19.33;;
9972;SDS011;5027;53.560;10.062;2024-03-02T06:19:20;26.97;;;21.33;;
9972;SDS011;5027;53.560;10.062;2024-03-02T06:21:47;22.63;;;19.90;;
9972;SDS011;5027;53.560;10.062;2024-03-02T06:24:14;27.17;;;21.63;;
9972;SDS011;5027;53.560;10.062;2024-03-02T06:26:41;22.00;;;19.47;;
9972;SDS011;5027;53.560;10.062;2024-03-02T06:29:08;21.70;;;19.17;;
9972;SDS011;5027;53.560;10.062;2024-03-02T06:31:34;23.67;;;20.03;;
9972;SDS011;5027;53.560;10.062;2024-03-02T06:34:01;22.20;;;19.57;;
9972;SDS011;5027;53.560;10.062;2024-03-02T06:36:30;22.73;;;19.83;;
9972;SDS011;5027;53.560;10.062;2024-03-02T06:38:56;22.60;;;19.70;;
9972;SDS011;5027;53.560;10.062;2024-03-02T06:41:23;21.90;;;19.20;;
9972;SDS011;5027;53.560;10.062;2024-03-02T06:43:50;24.50;;;20.37;;
9972;SDS011;5027;53.560;10.062;2024-03-02T06:46:20;23.30;;;19.63;;
9972;SDS011;5027;53.560;10.062;2024-03-02T06:48:47;22.20;;;19.83;;
9972;SDS011;5027;53.560;10.062;2024-03-02T06:51:14;23.07;;;19.27;;
9972;SDS011;5027;53.560;10.062;2024-03-02T06:53:42;24.13;;;19.33;;
9972;SDS011;5027;53.560;10.062;2024-03-02T06:56:08;23.63;;;19.83;;
9972;SDS011;5027;53.560;10.062;2024-03-02T06:58:35;22.37;;;18.33;;
9972;SDS011;5027;53.560;10.062;2024-03-02T07:01:02;23.97;;;19.27;;
9972;SDS011;5027;53.560;10.062;2024-03-02T07:03:29;21.93;;;18.93;;
9972;SDS011;5027;53.560;10.062;2024-03-02T07:05:55;20.73;;;18.53;;
9972;SDS011;5027;53.560;10.062;2024-03-02T07:08:23;21.97;;;19.10;;
9972;SDS011;5027;53.560;10.062;2024-03-02T07:10:50;22.27;;;18.57;;
9972;SDS011;5027;53.560;10.062;2024-03-02T07:13:16;21.27;;;18.50;;
9972;SDS011;5027;53.560;10.062;2024-03-02T07:15:43;22.37;;;18.50;;
9972;SDS011;5027;53.560;10.062;2024-03-02T07:18:32;22.20;;;18.33;;
9972;SDS011;5027;53.560;10.062;2024-03-02T07:21:07;20.43;;;18.27;;
9972;SDS011;5027;53.560;10.062;2024-03-02T07:23:34;23.33;;;19.03;;
9972;SDS011;5027;53.560;10.062;2024-03-02T07:26:01;21.13;;;18.13;;
9972;SDS011;5027;53.560;10.062;2024-03-02T07:28:31;24.23;;;19.70;;
9972;SDS011;5027;53.560;10.062;2024-03-02T07:31:01;24.50;;;20.83;;
9972;SDS011;5027;53.560;10.062;2024-03-02T07:33:30;21.33;;;19.07;;
9972;SDS011;5027;53.560;10.062;2024-03-02T07:35:58;23.93;;;20.10;;
9972;SDS011;5027;53.560;10.062;2024-03-02T07:38:30;23.20;;;20.10;;
9972;SDS011;5027;53.560;10.062;2024-03-02T07:40:57;24.33;;;20.60;;
9972;SDS011;5027;53.560;10.062;2024-03-02T07:43:24;24.53;;;19.80;;
9972;SDS011;5027;53.560;10.062;2024-03-02T07:45:51;23.43;;;19.90;;
9972;SDS011;5027;53.560;10.062;2024-03-02T07:48:18;24.17;;;20.23;;
9972;SDS011;5027;53.560;10.062;2024-03-02T07:50:45;23.37;;;19.33;;
9972;SDS011;5027;53.560;10.062;2024-03-02T07:53:11;23.13;;;20.33;;
9972;SDS011;5027;53.560;10.062;2024-03-02T07:55:38;23.87;;;19.67;;
9972;SDS011;5027;53.560;10.062;2024-03-02T07:58:05;23.03;;;19.90;;
9972;SDS011;5027;53.560;10.062;2024-03-02T08:00:33;26.10;;;19.73;;
9972;SDS011;5027;53.560;10.062;2024-03-02T08:03:00;23.03;;;19.53;;
9972;SDS011;5027;53.560;10.062;2024-03-02T08:05:27;23.50;;;20.27;;
9972;SDS011;5027;53.560;10.062;2024-03-02T08:07:54;22.47;;;19.70;;
9972;SDS011;5027;53.560;10.062;2024-03-02T08:10:20;25.60;;;21.87;;
9972;SDS011;5027;53.560;10.062;2024-03-02T08:12:47;26.57;;;21.13;;
9972;SDS011;5027;53.560;10.062;2024-03-02T08:15:14;25.73;;;21.00;;
9972;SDS011;5027;53.560;10.062;2024-03-02T08:17:41;24.33;;;20.53;;
9972;SDS011;5027;53.560;10.062;2024-03-02T08:20:15;23.47;;;20.57;;
9972;SDS011;5027;53.560;10.062;2024-03-02T08:22:42;24.03;;;20.40;;
9972;SDS011;5027;53.560;10.062;2024-03-02T08:25:09;25.13;;;20.67;;
9972;SDS011;5027;53.560;10.062;2024-03-02T08:27:36;25.27;;;20.73;;
9972;SDS011;5027;53.560;10.062;2024-03-02T08:30:04;25.53;;;21.57;;
9972;SDS011;5027;53.560;10.062;2024-03-02T08:32:33;24.53;;;20.80;;
9972;SDS011;5027;53.560;10.062;2024-03-02T08:35:00;27.70;;;21.70;;
9972;SDS011;5027;53.560;10.062;2024-03-02T08:37:27;24.83;;;22.13;;
9972;SDS011;5027;53.560;10.062;2024-03-02T08:39:54;25.10;;;21.07;;
9972;SDS011;5027;53.560;10.062;2024-03-02T08:42:21;25.83;;;21.97;;
9972;SDS011;5027;53.560;10.062;2024-03-02T08:44:49;23.57;;;21.10;;
9972;SDS011;5027;53.560;10.062;2024-03-02T08:47:16;26.30;;;21.90;;
9972;SDS011;5027;53.560;10.062;2024-03-02T08:49:43;28.10;;;22.07;;
9972;SDS011;5027;53.560;10.062;2024-03-02T08:52:09;23.73;;;20.93;;
9972;SDS011;5027;53.560;10.062;2024-03-02T08:54:36;24.63;;;21.53;;
9972;SDS011;5027;53.560;10.062;2024-03-02T08:57:03;23.80;;;21.23;;
9972;SDS011;5027;53.560;10.062;2024-03-02T08:59:31;24.07;;;21.40;;
9972;SDS011;5027;53.560;10.062;2024-03-02T09:01:57;23.93;;;21.03;;
9972;SDS011;5027;53.560;10.062;2024-03-02T09:04:25;25.13;;;20.77;;
9972;SDS011;5027;53.560;10.062;2024-03-02T09:06:54;24.40;;;20.20;;
9972;SDS011;5027;53.560;10.062;2024-03-02T09:09:21;24.93;;;20.53;;
9972;SDS011;5027;53.560;10.062;2024-03-02T09:11:48;26.77;;;23.83;;
9972;SDS011;5027;53.560;10.062;2024-03-02T09:14:15;24.33;;;20.90;;
9972;SDS011;5027;53.560;10.062;2024-03-02T09:16:42;22.63;;;20.20;;
9972;SDS011;5027;53.560;10.062;2024-03-02T09:19:09;22.73;;;20.33;;
9972;SDS011;5027;53.560;10.062;2024-03-02T09:21:36;24.93;;;20.60;;
9972;SDS011;5027;53.560;10.062;2024-03-02T09:24:04;29.43;;;20.60;;
9972;SDS011;5027;53.560;10.062;2024-03-02T09:26:32;24.03;;;21.43;;
9972;SDS011;5027;53.560;10.062;2024-03-02T09:28:59;26.17;;;20.43;;
9972;SDS011;5027;53.560;10.062;2024-03-02T09:31:26;21.37;;;18.43;;
9972;SDS011;5027;53.560;10.062;2024-03-02T09:33:53;22.10;;;19.23;;
9972;SDS011;5027;53.560;10.062;2024-03-02T09:36:20;23.53;;;19.73;;
9972;SDS011;5027;53.560;10.062;2024-03-02T09:38:48;22.07;;;19.20;;
9972;SDS011;5027;53.560;10.062;2024-03-02T09:41:15;22.57;;;19.67;;
9972;SDS011;5027;53.560;10.062;2024-03-02T09:43:42;23.13;;;20.07;;
9972;SDS011;5027;53.560;10.062;2024-03-02T09:46:09;21.40;;;18.40;;
9972;SDS011;5027;53.560;10.062;2024-03-02T09:48:37;21.27;;;18.33;;
9972;SDS011;5027;53.560;10.062;2024-03-02T09:51:04;20.30;;;17.70;;
9972;SDS011;5027;53.560;10.062;2024-03-02T09:53:31;19.27;;;17.07;;
9972;SDS011;5027;53.560;10.062;2024-03-02T09:56:00;20.43;;;17.87;;
9972;SDS011;5027;53.560;10.062;2024-03-02T09:58:27;20.37;;;17.37;;
9972;SDS011;5027;53.560;10.062;2024-03-02T10:00:53;21.63;;;18.60;;
9972;SDS011;5027;53.560;10.062;2024-03-02T10:03:20;22.93;;;17.67;;
9972;SDS011;5027;53.560;10.062;2024-03-02T10:05:53;18.10;;;15.87;;
9972;SDS011;5027;53.560;10.062;2024-03-02T10:08:19;18.00;;;15.97;;
9972;SDS011;5027;53.560;10.062;2024-03-02T10:10:46;21.00;;;15.80;;
9972;SDS011;5027;53.560;10.062;2024-03-02T10:13:13;17.33;;;15.53;;
9972;SDS011;5027;53.560;10.062;2024-03-02T10:15:40;17.40;;;15.43;;
9972;SDS011;5027;53.560;10.062;2024-03-02T10:18:08;18.90;;;15.90;;
9972;SDS011;5027;53.560;10.062;2024-03-02T10:20:38;18.23;;;16.00;;
9972;SDS011;5027;53.560;10.062;2024-03-02T10:23:12;17.17;;;15.23;;
9972;SDS011;5027;53.560;10.062;2024-03-02T10:25:43;16.10;;;14.40;;
9972;SDS011;5027;53.560;10.062;2024-03-02T10:28:23;18.63;;;15.00;;
9972;SDS011;5027;53.560;10.062;2024-03-02T10:30:50;16.50;;;14.80;;
9972;SDS011;5027;53.560;10.062;2024-03-02T10:33:19;18.93;;;15.07;;
9972;SDS011;5027;53.560;10.062;2024-03-02T10:35:46;16.27;;;13.37;;
9972;SDS011;5027;53.560;10.062;2024-03-02T10:38:16;15.17;;;13.30;;
9972;SDS011;5027;53.560;10.062;2024-03-02T10:40:46;16.83;;;13.43;;
9972;SDS011;5027;53.560;10.062;2024-03-02T10:43:13;16.37;;;13.10;;
9972;SDS011;5027;53.560;10.062;2024-03-02T10:45:41;15.73;;;14.03;;
9972;SDS011;5027;53.560;10.062;2024-03-02T10:48:09;15.67;;;13.53;;
9972;SDS011;5027;53.560;10.062;2024-03-02T10:50:36;15.53;;;13.83;;
9972;SDS011;5027;53.560;10.062;2024-03-02T10:53:03;14.27;;;12.80;;
9972;SDS011;5027;53.560;10.062;2024-03-02T10:55:32;14.23;;;12.73;;
9972;SDS011;5027;53.560;10.062;2024-03-02T10:57:59;13.23;;;11.60;;
9972;SDS011;5027;53.560;10.062;2024-03-02T11:00:32;11.63;;;10.43;;
9972;SDS011;5027;53.560;10.062;2024-03-02T11:03:07;12.80;;;10.97;;
9972;SDS011;5027;53.560;10.062;2024-03-02T11:05:38;13.03;;;11.30;;
9972;SDS011;5027;53.560;10.062;2024-03-02T11:08:07;10.47;;;9.37;;
9972;SDS011;5027;53.560;10.062;2024-03-02T11:10:50;10.70;;;9.37;;
9972;SDS011;5027;53.560;10.062;2024-03-02T11:13:22;12.60;;;9.90;;
9972;SDS011;5027;53.560;10.062;2024-03-02T11:15:55;10.03;;;9.03;;
9972;SDS011;5027;53.560;10.062;2024-03-02T11:18:45;11.17;;;8.57;;
9972;SDS011;5027;53.560;10.062;2024-03-02T11:21:13;10.30;;;8.57;;
9972;SDS011;5027;53.560;10.062;2024-03-02T11:23:40;10.30;;;8.70;;
9972;SDS011;5027;53.560;10.062;2024-03-02T11:26:17;9.30;;;8.27;;
9972;SDS011;5027;53.560;10.062;2024-03-02T11:28:47;10.93;;;8.63;;
9972;SDS011;5027;53.560;10.062;2024-03-02T11:31:14;11.23;;;9.23;;
9972;SDS011;5027;53.560;10.062;2024-03-02T11:33:41;11.83;;;8.83;;
9972;SDS011;5027;53.560;10.062;2024-03-02T11:36:09;9.37;;;7.97;;
9972;SDS011;5027;53.560;10.062;2024-03-02T11:38:38;11.03;;;9.10;;
9972;SDS011;5027;53.560;10.062;2024-03-02T11:41:06;8.93;;;7.97;;
9972;SDS011;5027;53.560;10.062;2024-03-02T11:43:38;12.33;;;7.77;;
9972;SDS011;5027;53.560;10.062;2024-03-02T11:46:07;9.23;;;8.10;;
9972;SDS011;5027;53.560;10.062;2024-03-02T11:48:35;10.20;;;7.53;;
9972;SDS011;5027;53.560;10.062;2024-03-02T11:51:04;10.03;;;7.73;;
9972;SDS011;5027;53.560;10.062;2024-03-02T11:53:31;9.47;;;7.23;;
9972;SDS011;5027;53.560;10.062;2024-03-02T11:56:01;12.03;;;7.73;;
9972;SDS011;5027;53.560;10.062;2024-03-02T11:58:28;9.30;;;7.90;;
9972;SDS011;5027;53.560;10.062;2024-03-02T12:00:56;10.10;;;8.43;;
9972;SDS011;5027;53.560;10.062;2024-03-02T12:03:24;10.03;;;8.00;;
9972;SDS011;5027;53.560;10.062;2024-03-02T12:05:53;9.23;;;7.90;;
9972;SDS011;5027;53.560;10.062;2024-03-02T12:08:20;9.90;;;7.70;;
9972;SDS011;5027;53.560;10.062;2024-03-02T12:11:00;9.67;;;8.03;;
9972;SDS011;5027;53.560;10.062;2024-03-02T12:13:30;10.87;;;8.43;;
9972;SDS011;5027;53.560;10.062;2024-03-02T12:15:57;9.80;;;8.00;;
9972;SDS011;5027;53.560;10.062;2024-03-02T12:18:24;10.20;;;9.00;;
9972;SDS011;5027;53.560;10.062;2024-03-02T12:20:52;9.47;;;7.73;;
9972;SDS011;5027;53.560;10.062;2024-03-02T12:23:19;14.23;;;8.77;;
9972;SDS011;5027;53.560;10.062;2024-03-02T12:25:46;14.07;;;8.77;;
9972;SDS011;5027;53.560;10.062;2024-03-02T12:28:12;8.93;;;8.03;;
9972;SDS011;5027;53.560;10.062;2024-03-02T12:30:39;8.93;;;7.80;;
9972;SDS011;5027;53.560;10.062;2024-03-02T12:33:06;11.17;;;8.30;;
9972;SDS011;5027;53.560;10.062;2024-03-02T12:35:33;12.30;;;8.30;;
9972;SDS011;5027;53.560;10.062;2024-03-02T12:38:00;8.53;;;7.63;;
9972;SDS011;5027;53.560;10.062;2024-03-02T12:40:26;9.23;;;8.03;;
9972;SDS011;5027;53.560;10.062;2024-03-02T12:42:53;10.87;;;8.67;;
9972;SDS011;5027;53.560;10.062;2024-03-02T12:45:20;11.50;;;8.40;;
9972;SDS011;5027;53.560;10.062;2024-03-02T12:47:51;10.90;;;9.40;;
9972;SDS011;5027;53.560;10.062;2024-03-02T12:50:18;10.40;;;9.27;;
9972;SDS011;5027;53.560;10.062;2024-03-02T12:52:52;11.57;;;10.37;;
9972;SDS011;5027;53.560;10.062;2024-03-02T12:55:19;12.03;;;10.53;;
9972;SDS011;5027;53.560;10.062;2024-03-02T12:57:49;11.97;;;9.97;;
9972;SDS011;5027;53.560;10.062;2024-03-02T13:00:17;12.70;;;10.43;;
9972;SDS011;5027;53.560;10.062;2024-03-02T13:02:45;11.80;;;9.97;;
9972;SDS011;5027;53.560;10.062;2024-03-02T13:05:12;14.90;;;11.67;;
9972;SDS011;5027;53.560;10.062;2024-03-02T13:07:39;11.67;;;10.40;;
9972;SDS011;5027;53.560;10.062;2024-03-02T13:10:11;11.87;;;10.57;;
9972;SDS011;5027;53.560;10.062;2024-03-02T13:12:38;11.33;;;9.50;;
9972;SDS011;5027;53.560;10.062;2024-03-02T13:15:05;11.60;;;10.40;;
9972;SDS011;5027;53.560;10.062;2024-03-02T13:17:35;12.43;;;10.30;;
9972;SDS011;5027;53.560;10.062;2024-03-02T13:20:04;12.47;;;9.70;;
9972;SDS011;5027;53.560;10.062;2024-03-02T13:22:34;13.17;;;9.83;;
9972;SDS011;5027;53.560;10.062;2024-03-02T13:25:01;11.73;;;10.50;;
9972;SDS011;5027;53.560;10.062;2024-03-02T13:27:32;12.83;;;11.33;;
9972;SDS011;5027;53.560;10.062;2024-03-02T13:29:59;13.63;;;10.87;;
9972;SDS011;5027;53.560;10.062;2024-03-02T13:32:26;11.40;;;10.20;;
9972;SDS011;5027;53.560;10.062;2024-03-02T13:34:53;13.40;;;12.00;;
9972;SDS011;5027;53.560;10.062;2024-03-02T13:37:20;12.37;;;10.83;;
9972;SDS011;5027;53.560;10.062;2024-03-02T13:39:47;10.70;;;9.60;;
9972;SDS011;5027;53.560;10.062;2024-03-02T13:42:14;12.30;;;10.13;;
9972;SDS011;5027;53.560;10.062;2024-03-02T13:44:45;11.67;;;9.87;;
9972;SDS011;5027;53.560;10.062;2024-03-02T13:47:13;13.53;;;10.50;;
9972;SDS011;5027;53.560;10.062;2024-03-02T13:49:40;11.00;;;9.90;;
9972;SDS011;5027;53.560;10.062;2024-03-02T13:52:10;12.43;;;11.13;;
9972;SDS011;5027;53.560;10.062;2024-03-02T13:54:39;12.20;;;10.90;;
9972;SDS011;5027;53.560;10.062;2024-03-02T13:57:09;12.53;;;11.17;;
9972;SDS011;5027;53.560;10.062;2024-03-02T13:59:36;12.53;;;11.27;;
9972;SDS011;5027;53.560;10.062;2024-03-02T14:02:04;11.20;;;9.63;;
9972;SDS011;5027;53.560;10.062;2024-03-02T14:04:32;13.13;;;11.70;;
9972;SDS011;5027;53.560;10.062;2024-03-02T14:07:03;11.33;;;10.23;;
9972;SDS011;5027;53.560;10.062;2024-03-02T14:09:33;12.47;;;11.10;;
9972;SDS011;5027;53.560;10.062;2024-03-02T14:12:00;12.53;;;11.10;;
9972;SDS011;5027;53.560;10.062;2024-03-02T14:14:27;13.27;;;11.37;;
9972;SDS011;5027;53.560;10.062;2024-03-02T14:16:56;13.43;;;11.17;;
9972;SDS011;5027;53.560;10.062;2024-03-02T14:19:26;17.10;;;14.37;;
9972;SDS011;5027;53.560;10.062;2024-03-02T14:21:53;12.87;;;10.70;;
9972;SDS011;5027;53.560;10.062;2024-03-02T14:24:20;12.30;;;11.00;;
9972;SDS011;5027;53.560;10.062;2024-03-02T14:26:50;12.10;;;10.80;;
9972;SDS011;5027;53.560;10.062;2024-03-02T14:29:18;14.53;;;12.40;;
9972;SDS011;5027;53.560;10.062;2024-03-02T14:31:45;12.43;;;10.10;;
9972;SDS011;5027;53.560;10.062;2024-03-02T14:34:14;10.80;;;9.70;;
9972;SDS011;5027;53.560;10.062;2024-03-02T14:36:41;12.47;;;9.63;;
9972;SDS011;5027;53.560;10.062;2024-03-02T14:39:10;10.83;;;9.43;;
9972;SDS011;5027;53.560;10.062;2024-03-02T14:41:37;9.60;;;8.60;;
9972;SDS011;5027;53.560;10.062;2024-03-02T14:44:04;11.07;;;8.80;;